Time;durP1;ratioP1;P1;durP2;ratioP2;P2;SDS_P1;SDS_P2;PMS_P1;PMS_P2;Temp;Humidity;BMP_temperature;BMP_pressure;BME280_temperature;BME280_humidity;BME280_pressure;Samples;Min_cycle;Max_cycle;Signal;HPM_P1;HPM_P2
2023/10/08 00:02:06;;;;;;;7.43;4.40;;;13.60;99.90;;;;;;5067865;28;20266;-55
2023/10/08 00:04:37;;;;;;;7.97;4.60;;;13.80;99.90;;;;;;5071211;28;20240;-55
2023/10/08 00:07:07;;;;;;;7.43;4.27;;;13.80;99.90;;;;;;5072655;28;20242;-55
2023/10/08 00:09:36;;;;;;;5.40;4.53;;;13.80;99.90;;;;;;5092190;28;20226;-55
2023/10/08 00:12:04;;;;;;;6.27;4.30;;;13.80;99.90;;;;;;5085433;28;20231;-55
2023/10/08 00:14:32;;;;;;;5.73;4.03;;;13.70;99.90;;;;;;5075842;28;20695;-55
2023/10/08 00:17:00;;;;;;;7.70;4.63;;;13.70;99.90;;;;;;5075396;28;20821;-55
2023/10/08 00:19:33;;;;;;;6.83;4.80;;;13.60;99.90;;;;;;5091864;28;20226;-55
2023/10/08 00:22:06;;;;;;;9.70;5.07;;;13.60;99.90;;;;;;5076960;28;20219;-55
2023/10/08 00:24:33;;;;;;;7.50;5.03;;;13.50;99.90;;;;;;5078966;28;20193;-55
2023/10/08 00:27:06;;;;;;;8.30;4.57;;;13.50;99.90;;;;;;5076889;28;20200;-55
2023/10/08 00:29:33;;;;;;;7.63;5.23;;;13.40;99.90;;;;;;5076641;28;20223;-55
2023/10/08 00:32:11;;;;;;;4.70;3.93;;;13.40;99.90;;;;;;5087095;28;20201;-55
2023/10/08 00:34:41;;;;;;;5.30;4.20;;;13.40;99.90;;;;;;5078226;28;20772;-55
2023/10/08 00:37:14;;;;;;;5.93;4.33;;;13.30;99.90;;;;;;5072016;28;20201;-55
2023/10/08 00:39:41;;;;;;;5.77;4.30;;;13.30;99.90;;;;;;5086598;28;20285;-55
2023/10/08 00:42:08;;;;;;;7.10;4.53;;;13.20;99.90;;;;;;5079379;28;20205;-55
2023/10/08 00:44:47;;;;;;;5.23;4.20;;;13.20;99.90;;;;;;5072320;28;20197;-55
2023/10/08 00:47:16;;;;;;;5.03;4.53;;;13.20;99.90;;;;;;5074058;28;20215;-55
2023/10/08 00:49:54;;;;;;;7.03;5.07;;;13.10;99.90;;;;;;5088293;28;20197;-55
2023/10/08 00:52:41;;;;;;;6.70;4.30;;;13.20;99.90;;;;;;5080853;28;20200;-55
2023/10/08 00:55:14;;;;;;;5.47;4.20;;;13.20;99.90;;;;;;5074357;28;20227;-55
2023/10/08 00:57:43;;;;;;;7.73;5.37;;;13.20;99.90;;;;;;5088366;28;20220;-56
2023/10/08 01:00:21;;;;;;;7.07;4.30;;;13.20;99.90;;;;;;5091372;28;20204;-55
2023/10/08 01:03:00;;;;;;;5.87;4.17;;;13.20;99.90;;;;;;5078849;28;20196;-55
2023/10/08 01:05:42;;;;;;;7.27;4.23;;;13.20;99.90;;;;;;5067586;28;20386;-55
2023/10/08 01:08:14;;;;;;;5.93;4.87;;;13.20;99.90;;;;;;5071480;28;20220;-56
2023/10/08 01:10:46;;;;;;;7.30;4.40;;;13.20;99.90;;;;;;5077267;28;20676;-55
2023/10/08 01:13:16;;;;;;;10.87;5.23;;;13.20;99.90;;;;;;5072674;28;20646;-55
2023/10/08 01:15:50;;;;;;;6.60;4.20;;;13.20;99.90;;;;;;5072259;28;20411;-55
2023/10/08 01:18:28;;;;;;;8.23;4.90;;;13.20;99.90;;;;;;5080519;28;20267;-55
2023/10/08 01:21:04;;;;;;;5.53;3.73;;;13.20;99.90;;;;;;5067906;28;20215;-55
2023/10/08 01:23:32;;;;;;;6.43;4.43;;;13.20;99.90;;;;;;5063629;28;20595;-55
2023/10/08 01:26:10;;;;;;;8.17;4.60;;;13.10;99.90;;;;;;5066391;28;20209;-54
2023/10/08 01:28:37;;;;;;;10.23;4.37;;;13.10;99.90;;;;;;5070685;28;20229;-55
2023/10/08 01:31:06;;;;;;;7.40;3.80;;;13.10;99.90;;;;;;5082803;28;20277;-55
2023/10/08 01:33:37;;;;;;;7.33;4.23;;;13.10;99.90;;;;;;5070638;28;20209;-55
2023/10/08 01:36:07;;;;;;;6.07;3.23;;;13.10;99.90;;;;;;5076321;28;20235;-55
2023/10/08 01:38:36;;;;;;;5.33;3.63;;;13.10;99.90;;;;;;5075622;28;20296;-55
2023/10/08 01:41:10;;;;;;;8.20;4.20;;;13.10;99.90;;;;;;5087247;28;20270;-55
2023/10/08 01:43:38;;;;;;;6.63;5.07;;;13.10;99.90;;;;;;5084721;28;20631;-55
2023/10/08 01:46:11;;;;;;;3.90;3.53;;;13.00;99.90;;;;;;5067161;28;20197;-55
2023/10/08 01:48:39;;;;;;;5.13;3.87;;;13.00;99.90;;;;;;5076372;28;20244;-55
2023/10/08 01:51:11;;;;;;;6.03;3.73;;;13.00;99.90;;;;;;5068792;28;20205;-55
2023/10/08 01:53:39;;;;;;;8.03;4.67;;;13.00;99.90;;;;;;5077675;28;20197;-55
2023/10/08 01:56:06;;;;;;;6.77;4.10;;;12.90;99.90;;;;;;5072061;28;20229;-55
2023/10/08 01:58:33;;;;;;;9.50;4.17;;;12.90;99.90;;;;;;5070688;28;20225;-55
2023/10/08 02:01:01;;;;;;;5.07;4.27;;;12.90;99.90;;;;;;5087424;28;20216;-55
2023/10/08 02:03:28;;;;;;;5.40;4.00;;;12.90;99.90;;;;;;5086931;28;20629;-55
2023/10/08 02:05:58;;;;;;;6.53;4.13;;;12.80;99.90;;;;;;5069854;28;20640;-55
2023/10/08 02:08:26;;;;;;;6.67;3.80;;;12.80;99.90;;;;;;5069846;28;20216;-55
2023/10/08 02:10:56;;;;;;;7.60;3.83;;;12.80;99.90;;;;;;5070897;28;20980;-55
2023/10/08 02:13:23;;;;;;;7.73;3.83;;;12.80;99.90;;;;;;5088617;28;20219;-55
2023/10/08 02:15:52;;;;;;;4.43;3.73;;;12.80;99.90;;;;;;5090596;28;20686;-55
2023/10/08 02:18:19;;;;;;;6.83;3.73;;;12.80;99.90;;;;;;5083650;28;20233;-55
2023/10/08 02:20:48;;;;;;;5.97;4.80;;;12.90;99.90;;;;;;5072016;28;20200;-55
2023/10/08 02:23:14;;;;;;;6.77;4.43;;;13.00;99.90;;;;;;5069943;28;20229;-55
2023/10/08 02:25:44;;;;;;;9.17;4.50;;;13.00;99.90;;;;;;5084571;28;20254;-55
2023/10/08 02:28:15;;;;;;;5.53;4.20;;;13.00;99.90;;;;;;5089648;28;20303;-55
2023/10/08 02:30:45;;;;;;;6.23;2.83;;;13.00;99.90;;;;;;5082553;28;20192;-55
2023/10/08 02:33:15;;;;;;;8.97;3.90;;;13.00;99.90;;;;;;5067857;28;20237;-54
2023/10/08 02:35:46;;;;;;;6.20;3.90;;;13.00;99.90;;;;;;5074875;28;20269;-56
2023/10/08 02:38:16;;;;;;;6.43;3.17;;;13.00;99.90;;;;;;5082839;28;20307;-56
2023/10/08 02:40:46;;;;;;;9.00;4.37;;;13.00;99.90;;;;;;5088756;28;20199;-55
2023/10/08 02:43:15;;;;;;;5.50;3.47;;;12.90;99.90;;;;;;5070335;28;20288;-55
2023/10/08 02:45:48;;;;;;;6.90;4.43;;;12.90;99.90;;;;;;5075775;28;20278;-55
2023/10/08 02:48:16;;;;;;;6.80;4.07;;;12.90;99.90;;;;;;5072874;28;20225;-57
2023/10/08 02:50:46;;;;;;;3.77;3.47;;;12.90;99.90;;;;;;5079054;28;20241;-55
2023/10/08 02:53:17;;;;;;;5.93;3.33;;;12.90;99.90;;;;;;5072920;28;20203;-55
2023/10/08 02:55:46;;;;;;;5.50;3.50;;;12.90;99.90;;;;;;5081664;28;20728;-55
2023/10/08 02:58:15;;;;;;;6.43;3.80;;;12.80;99.90;;;;;;5087428;28;20755;-55
2023/10/08 03:00:47;;;;;;;7.57;3.37;;;12.90;99.90;;;;;;5086133;28;20203;-56
2023/10/08 03:03:16;;;;;;;6.27;3.87;;;12.90;99.90;;;;;;5082885;28;20308;-55
2023/10/08 03:05:48;;;;;;;6.60;2.80;;;12.80;99.90;;;;;;5087200;28;20231;-55
2023/10/08 03:08:20;;;;;;;5.27;3.73;;;12.80;99.90;;;;;;5085265;28;20278;-55
2023/10/08 03:10:50;;;;;;;5.87;3.53;;;12.80;99.90;;;;;;5080594;28;20197;-55
2023/10/08 03:13:19;;;;;;;4.63;2.50;;;12.80;99.90;;;;;;5072676;28;20579;-55
2023/10/08 03:16:07;;;;;;;4.50;3.27;;;12.80;99.90;;;;;;5087788;28;20224;-55
2023/10/08 03:18:36;;;;;;;6.33;3.77;;;12.80;99.90;;;;;;5085898;28;20231;-55
2023/10/08 03:21:04;;;;;;;7.37;3.43;;;12.80;99.90;;;;;;5076672;28;20580;-55
2023/10/08 03:23:34;;;;;;;7.50;3.17;;;12.80;99.90;;;;;;5070382;28;20201;-55
2023/10/08 03:26:10;;;;;;;7.13;3.63;;;12.90;99.90;;;;;;5073339;28;20200;-55
2023/10/08 03:28:41;;;;;;;7.60;4.90;;;13.00;99.90;;;;;;5070251;28;20223;-55
2023/10/08 03:31:17;;;;;;;8.50;3.73;;;13.00;99.90;;;;;;5072894;28;20738;-55
2023/10/08 03:33:49;;;;;;;7.13;4.13;;;13.00;99.90;;;;;;5073758;28;20210;-55
2023/10/08 03:36:21;;;;;;;6.53;3.40;;;12.90;99.90;;;;;;5076398;28;20258;-55
2023/10/08 03:38:51;;;;;;;5.53;3.50;;;12.90;99.90;;;;;;5072126;28;20232;-55
2023/10/08 03:41:20;;;;;;;5.97;3.37;;;12.90;99.90;;;;;;5072781;28;20229;-55
2023/10/08 03:43:56;;;;;;;5.33;3.60;;;12.90;99.90;;;;;;5073927;28;20205;-55
2023/10/08 03:46:24;;;;;;;6.30;3.17;;;12.90;99.90;;;;;;5081161;28;20203;-55
2023/10/08 03:48:52;;;;;;;8.90;3.60;;;12.90;99.90;;;;;;5070304;28;20597;-55
2023/10/08 03:51:21;;;;;;;6.80;3.23;;;12.90;99.90;;;;;;5071396;28;20288;-55
2023/10/08 03:54:15;;;;;;;6.03;3.03;;;12.90;99.90;;;;;;5074412;28;20197;-55
2023/10/08 03:56:45;;;;;;;5.23;2.77;;;12.80;99.90;;;;;;5076213;28;20225;-55
2023/10/08 03:59:20;;;;;;;5.60;3.53;;;12.80;99.90;;;;;;5070089;28;20232;-55
2023/10/08 04:01:49;;;;;;;7.70;3.13;;;12.80;99.90;;;;;;5074946;28;20290;-55
2023/10/08 04:04:16;;;;;;;9.77;3.47;;;12.80;99.90;;;;;;5073195;28;20209;-54
2023/10/08 04:06:49;;;;;;;7.97;3.47;;;12.90;99.90;;;;;;5071359;28;20201;-55
2023/10/08 04:09:25;;;;;;;4.90;2.83;;;13.00;99.90;;;;;;5070536;28;20228;-56
2023/10/08 04:11:51;;;;;;;4.67;3.07;;;13.10;99.90;;;;;;5071343;28;20199;-56
2023/10/08 04:14:21;;;;;;;5.93;2.57;;;13.10;99.90;;;;;;5076141;28;20201;-56
2023/10/08 04:16:51;;;;;;;6.80;2.80;;;13.00;99.90;;;;;;5074885;28;20223;-54
2023/10/08 04:19:19;;;;;;;8.43;3.47;;;12.90;99.90;;;;;;5071383;22;20257;-59
2023/10/08 04:21:53;;;;;;;5.30;3.03;;;12.90;99.90;;;;;;5029767;28;20230;-58
2023/10/08 04:24:27;;;;;;;5.93;2.83;;;12.80;99.90;;;;;;5039003;28;20209;-60
2023/10/08 04:26:57;;;;;;;5.63;3.30;;;12.70;99.90;;;;;;5031487;28;20209;-58
2023/10/08 04:29:26;;;;;;;7.53;3.37;;;12.60;99.90;;;;;;5020988;28;20302;-58
2023/10/08 04:32:07;;;;;;;6.37;3.20;;;12.60;99.90;;;;;;5022018;28;20205;-58
2023/10/08 04:34:35;;;;;;;5.13;3.13;;;12.50;99.90;;;;;;5032214;28;20674;-59
2023/10/08 04:37:03;;;;;;;6.07;3.53;;;12.50;99.90;;;;;;5023259;28;20223;-59
2023/10/08 04:39:33;;;;;;;7.30;3.60;;;12.60;99.90;;;;;;5019702;28;20221;-58
2023/10/08 04:42:09;;;;;;;4.63;2.73;;;12.50;99.90;;;;;;5025743;28;20209;-58
2023/10/08 04:44:40;;;;;;;5.63;3.53;;;12.40;99.90;;;;;;5028596;28;20198;-59
2023/10/08 04:47:09;;;;;;;3.87;3.23;;;12.40;99.90;;;;;;5020993;28;20197;-59
2023/10/08 04:49:45;;;;;;;8.20;3.37;;;12.30;99.90;;;;;;5030553;28;20235;-59
2023/10/08 04:52:14;;;;;;;10.77;4.23;;;12.20;99.90;;;;;;5023481;28;20224;-59
2023/10/08 04:54:50;;;;;;;7.30;3.10;;;12.20;99.90;;;;;;5029277;28;20226;-59
2023/10/08 04:57:21;;;;;;;6.53;3.33;;;12.10;99.90;;;;;;5022029;28;20229;-59
2023/10/08 04:59:51;;;;;;;6.67;3.63;;;12.00;99.90;;;;;;5030954;28;20586;-59
2023/10/08 05:02:22;;;;;;;8.10;3.47;;;12.00;99.90;;;;;;5020731;28;20229;-59
2023/10/08 05:05:21;;;;;;;8.50;3.33;;;11.90;99.90;;;;;;5022918;28;20201;-59
2023/10/08 05:08:28;;;;;;;6.43;3.47;;;11.90;99.90;;;;;;5018265;28;20241;-58
2023/10/08 05:11:02;;;;;;;7.53;3.23;;;11.90;99.90;;;;;;5023818;28;20236;-58
2023/10/08 05:13:45;;;;;;;5.20;3.33;;;11.80;99.90;;;;;;5015493;28;20205;-58
2023/10/08 05:16:35;;;;;;;7.73;3.17;;;11.80;99.90;;;;;;5016119;28;20228;-59
2023/10/08 05:19:24;;;;;;;5.33;2.77;;;11.70;99.90;;;;;;5027986;28;20233;-59
2023/10/08 05:22:17;;;;;;;6.33;3.20;;;11.70;99.90;;;;;;5020253;28;20253;-59
2023/10/08 05:25:05;;;;;;;6.40;3.10;;;11.70;99.90;;;;;;5025568;28;20210;-59
2023/10/08 05:30:28;;;;;;;4.63;3.63;;;11.80;99.90;;;;;;5026714;28;20201;-57
2023/10/08 05:35:54;;;;;;;6.27;3.30;;;11.90;99.90;;;;;;5011051;28;20209;-57
2023/10/08 05:38:38;;;;;;;5.73;3.10;;;11.90;99.90;;;;;;5025441;28;20214;-58
2023/10/08 05:41:16;;;;;;;8.40;3.60;;;11.90;99.90;;;;;;5022686;28;20228;-57
2023/10/08 05:43:55;;;;;;;7.27;2.63;;;11.90;99.90;;;;;;5025444;28;20203;-58
2023/10/08 05:46:47;;;;;;;13.17;3.40;;;12.50;99.90;;;;;;5021722;28;20709;-58
2023/10/08 05:49:38;;;;;;;5.27;2.97;;;11.90;99.90;;;;;;5030208;28;20227;-58
2023/10/08 05:55:14;;;;;;;8.63;4.23;;;11.90;99.90;;;;;;5029357;28;20274;-57
2023/10/08 05:57:46;;;;;;;5.93;3.20;;;12.00;99.90;;;;;;5026761;28;20681;-58
2023/10/08 06:03:31;;;;;;;11.93;3.90;;;12.10;99.90;;;;;;5029587;28;20254;-58
2023/10/08 06:11:41;;;;;;;5.57;3.97;;;12.30;99.90;;;;;;5020618;28;20232;-57
2023/10/08 06:14:13;;;;;;;4.63;3.20;;;12.40;99.90;;;;;;5029555;28;20213;-58
2023/10/08 06:16:46;;;;;;;6.90;3.50;;;12.60;99.90;;;;;;5029572;28;20215;-58
2023/10/08 06:19:14;;;;;;;8.23;3.03;;;12.70;99.90;;;;;;5033191;28;20236;-57
2023/10/08 06:21:45;;;;;;;14.23;3.73;;;12.80;99.90;;;;;;5032414;28;20201;-58
2023/10/08 06:24:16;;;;;;;9.13;3.73;;;12.80;99.90;;;;;;5031420;28;20676;-58
2023/10/08 06:26:48;;;;;;;10.53;3.50;;;13.00;99.90;;;;;;5028753;28;20290;-57
2023/10/08 06:29:27;;;;;;;10.03;4.23;;;13.10;99.90;;;;;;5033579;28;20214;-57
2023/10/08 06:31:56;;;;;;;11.67;3.50;;;13.20;99.90;;;;;;5032085;28;20198;-58
2023/10/08 06:34:27;;;;;;;10.43;3.63;;;13.30;99.90;;;;;;5032822;28;20210;-58
2023/10/08 06:36:57;;;;;;;7.63;3.17;;;13.50;99.90;;;;;;5026939;28;20222;-58
2023/10/08 06:39:33;;;;;;;8.00;2.47;;;13.60;99.90;;;;;;5033187;28;20222;-58
2023/10/08 06:42:00;;;;;;;7.27;2.57;;;13.80;99.90;;;;;;5028732;28;20736;-58
2023/10/08 06:44:27;;;;;;;7.80;2.30;;;13.90;99.90;;;;;;5025041;28;20225;-58
2023/10/08 06:46:54;;;;;;;9.50;3.40;;;14.10;99.90;;;;;;5033163;28;20195;-58
2023/10/08 06:49:23;;;;;;;6.80;2.83;;;14.20;99.90;;;;;;5025961;28;20234;-57
2023/10/08 06:51:51;;;;;;;8.37;3.20;;;14.30;99.90;;;;;;5032303;28;20281;-57
2023/10/08 06:54:22;;;;;;;12.43;2.83;;;14.40;99.90;;;;;;5029781;28;20251;-57
2023/10/08 06:56:51;;;;;;;7.43;2.87;;;14.50;99.90;;;;;;5030149;28;20222;-57
2023/10/08 06:59:19;;;;;;;7.60;2.53;;;14.60;99.90;;;;;;5030472;28;20277;-57
2023/10/08 07:01:46;;;;;;;6.10;2.33;;;14.70;99.90;;;;;;5028465;28;20364;-57
2023/10/08 07:04:14;;;;;;;5.27;2.40;;;14.80;99.90;;;;;;5027192;28;20285;-57
2023/10/08 07:06:42;;;;;;;7.37;3.03;;;14.90;99.90;;;;;;5032832;28;20199;-57
2023/10/08 07:09:22;;;;;;;7.73;2.73;;;15.00;99.90;;;;;;5030150;28;20297;-57
2023/10/08 07:11:54;;;;;;;7.17;3.00;;;15.10;99.90;;;;;;5026843;28;20224;-57
2023/10/08 07:14:26;;;;;;;18.03;5.10;;;15.20;99.90;;;;;;5031510;28;20202;-57
2023/10/08 07:16:54;;;;;;;6.63;3.40;;;15.30;99.90;;;;;;5031210;28;20219;-57
2023/10/08 07:19:28;;;;;;;7.23;3.27;;;15.50;99.90;;;;;;5030612;28;20264;-57
2023/10/08 07:22:03;;;;;;;5.70;1.70;;;15.60;99.90;;;;;;5032569;28;20210;-57
2023/10/08 07:24:30;;;;;;;10.00;3.20;;;15.60;99.90;;;;;;5029549;28;20692;-57
2023/10/08 07:26:59;;;;;;;6.37;3.37;;;15.70;99.90;;;;;;5032828;28;20210;-57
2023/10/08 07:29:26;;;;;;;8.23;2.67;;;15.80;99.90;;;;;;5028813;28;20663;-57
2023/10/08 07:31:53;;;;;;;9.60;3.37;;;15.80;99.90;;;;;;5022474;28;20264;-57
2023/10/08 07:34:26;;;;;;;14.17;2.73;;;15.90;99.90;;;;;;5028633;28;20203;-57
2023/10/08 07:36:55;;;;;;;8.20;2.77;;;16.00;99.90;;;;;;5018595;28;20219;-57
2023/10/08 07:39:33;;;;;;;7.63;2.67;;;16.10;99.90;;;;;;5026066;28;20226;-58
2023/10/08 07:42:05;;;;;;;10.33;2.67;;;16.20;99.90;;;;;;5017306;28;20802;-58
2023/10/08 07:44:35;;;;;;;12.37;3.70;;;16.40;99.90;;;;;;5012847;28;20200;-58
2023/10/08 07:47:10;;;;;;;11.90;3.40;;;16.40;99.90;;;;;;5018498;28;20202;-58
2023/10/08 07:49:37;;;;;;;7.07;2.57;;;16.50;99.90;;;;;;5023522;28;20421;-58
2023/10/08 07:52:04;;;;;;;10.33;3.50;;;16.60;99.90;;;;;;5023581;28;20260;-57
2023/10/08 07:54:34;;;;;;;8.27;2.87;;;16.60;99.90;;;;;;5026429;28;20230;-57
2023/10/08 07:57:09;;;;;;;10.00;3.00;;;16.80;99.90;;;;;;5023447;28;20276;-57
2023/10/08 07:59:38;;;;;;;6.87;2.87;;;16.90;99.90;;;;;;5025831;28;20645;-57
2023/10/08 08:02:09;;;;;;;4.50;2.80;;;17.00;99.90;;;;;;5019774;28;20611;-57
2023/10/08 08:04:37;;;;;;;9.17;3.20;;;17.10;99.90;;;;;;5016023;28;20234;-58
2023/10/08 08:07:05;;;;;;;8.02;3.70;;;17.30;99.90;;;;;;5027701;28;20449;-67
2023/10/08 08:09:37;;;;;;;7.77;3.13;;;17.40;99.90;;;;;;5028816;28;20753;-64
2023/10/08 08:12:11;;;;;;;6.03;3.30;;;17.50;99.90;;;;;;5022063;28;20206;-64
2023/10/08 08:14:41;;;;;;;9.00;3.10;;;17.60;99.90;;;;;;5026607;28;20206;-66
2023/10/08 08:17:14;;;;;;;7.60;3.10;;;17.70;99.90;;;;;;5028297;28;20237;-67
2023/10/08 08:19:41;;;;;;;9.50;3.77;;;17.70;99.90;;;;;;5029675;28;20257;-67
2023/10/08 08:22:08;;;;;;;6.13;2.83;;;17.90;99.90;;;;;;5028281;28;20256;-66
2023/10/08 08:24:36;;;;;;;9.30;3.50;;;17.90;99.90;;;;;;5029137;28;20244;-68
2023/10/08 08:27:11;;;;;;;11.17;4.13;;;18.00;99.90;;;;;;5027712;28;20709;-69
2023/10/08 08:29:45;;;;;;;5.87;3.00;;;18.20;99.90;;;;;;5023342;28;20225;-66
2023/10/08 08:32:15;;;;;;;13.40;3.00;;;18.30;99.90;;;;;;5027808;28;20305;-70
2023/10/08 08:34:43;;;;;;;6.93;3.10;;;18.40;99.90;;;;;;5025817;28;20198;-68
2023/10/08 08:37:11;;;;;;;11.13;3.47;;;18.40;99.90;;;;;;5026387;28;20222;-67
2023/10/08 08:39:39;;;;;;;9.20;3.70;;;18.60;99.90;;;;;;5016353;28;20302;-69
2023/10/08 08:42:06;;;;;;;6.13;3.10;;;19.00;99.90;;;;;;5026740;28;20288;-59
2023/10/08 08:44:39;;;;;;;11.30;3.50;;;19.80;99.90;;;;;;5024112;28;20614;-59
2023/10/08 08:47:10;;;;;;;7.87;2.77;;;20.50;99.90;;;;;;5029047;28;20205;-70
2023/10/08 08:49:38;;;;;;;8.90;4.53;;;21.40;99.90;;;;;;5023347;28;20222;-69
2023/10/08 08:52:05;;;;;;;7.13;2.90;;;22.20;99.90;;;;;;5025269;28;20211;-70
2023/10/08 08:54:32;;;;;;;9.00;2.03;;;23.10;99.90;;;;;;5016298;28;20203;-70
2023/10/08 08:57:04;;;;;;;7.20;3.03;;;23.70;99.90;;;;;;5018620;28;20223;-70
2023/10/08 08:59:31;;;;;;;9.17;4.23;;;24.10;99.90;;;;;;5028152;28;20214;-71
2023/10/08 09:02:00;;;;;;;8.90;2.90;;;24.20;99.90;;;;;;5027601;28;20678;-71
2023/10/08 09:04:32;;;;;;;7.70;3.03;;;24.40;99.90;;;;;;5028869;28;20210;-73
2023/10/08 09:07:03;;;;;;;8.63;3.37;;;24.80;99.90;;;;;;5027129;28;20206;-70
2023/10/08 09:09:39;;;;;;;5.90;2.97;;;25.20;99.90;;;;;;5021803;28;20233;-70
2023/10/08 09:12:10;;;;;;;8.50;3.70;;;25.40;99.90;;;;;;5020707;28;20588;-70
2023/10/08 09:14:37;;;;;;;8.00;2.70;;;25.40;99.90;;;;;;5015458;28;20199;-72
2023/10/08 09:17:10;;;;;;;9.93;3.30;;;25.30;99.90;;;;;;5018477;28;20254;-73
2023/10/08 09:19:39;;;;;;;7.87;3.03;;;25.50;99.90;;;;;;5023546;28;20789;-74
2023/10/08 09:22:10;;;;;;;6.07;2.57;;;25.50;99.90;;;;;;5021859;28;20245;-73
2023/10/08 09:24:39;;;;;;;8.13;3.00;;;25.60;99.90;;;;;;5016099;28;20203;-73
2023/10/08 09:27:13;;;;;;;7.90;2.80;;;25.80;99.90;;;;;;5023000;28;20222;-72
2023/10/08 09:29:41;;;;;;;5.80;2.27;;;25.80;99.90;;;;;;5015341;28;20214;-71
2023/10/08 09:32:11;;;;;;;13.30;2.90;;;26.00;99.90;;;;;;5029727;28;20206;-72
2023/10/08 09:34:39;;;;;;;13.77;3.37;;;25.90;99.90;;;;;;5021697;28;20629;-72
2023/10/08 09:37:09;;;;;;;8.77;2.70;;;25.80;99.90;;;;;;5019423;28;20265;-73
2023/10/08 09:39:39;;;;;;;9.90;3.73;;;25.20;99.90;;;;;;5021959;28;20224;-73
2023/10/08 09:42:07;;;;;;;13.27;3.07;;;25.40;99.90;;;;;;5027721;28;20210;-67
2023/10/08 09:44:34;;;;;;;7.30;2.90;;;25.40;99.90;;;;;;5025790;28;20268;-67
2023/10/08 09:47:05;;;;;;;8.20;3.17;;;24.90;99.90;;;;;;5022419;28;20705;-67
2023/10/08 09:49:33;;;;;;;8.37;3.07;;;25.40;99.90;;;;;;5028212;28;20301;-67
2023/10/08 09:52:07;;;;;;;9.10;3.23;;;25.20;99.90;;;;;;5031460;28;20202;-70
2023/10/08 09:54:43;;;;;;;16.17;4.60;;;25.30;99.90;;;;;;5023987;28;20256;-60
2023/10/08 09:57:11;;;;;;;6.70;3.07;;;25.30;99.90;;;;;;5028795;28;20202;-67
2023/10/08 09:59:39;;;;;;;10.07;4.50;;;25.30;99.90;;;;;;5028011;28;21469;-65
2023/10/08 10:02:10;;;;;;;14.33;4.07;;;25.40;99.90;;;;;;5033849;28;20292;-69
2023/10/08 10:04:42;;;;;;;8.80;2.73;;;25.30;99.90;;;;;;5021269;28;20617;-60
2023/10/08 10:07:14;;;;;;;12.83;4.00;;;25.30;99.90;;;;;;5029075;28;20229;-74
2023/10/08 10:09:46;;;;;;;8.27;2.93;;;25.30;99.90;;;;;;5031495;28;20228;-70
2023/10/08 10:12:18;;;;;;;9.40;3.10;;;25.00;99.90;;;;;;5030823;28;20245;-59
2023/10/08 10:14:49;;;;;;;10.47;2.87;;;25.00;99.90;;;;;;5024870;28;20221;-75
2023/10/08 10:17:25;;;;;;;11.63;3.80;;;25.20;99.90;;;;;;5026429;28;20281;-76
2023/10/08 10:19:55;;;;;;;10.73;3.40;;;25.20;99.90;;;;;;5027297;28;20640;-75
2023/10/08 10:22:32;;;;;;;7.00;3.30;;;25.90;99.90;;;;;;5053101;22;20222;-63
2023/10/08 10:25:03;;;;;;;7.95;3.47;;;26.40;99.90;;;;;;5031683;28;20309;-64
2023/10/08 10:27:31;;;;;;;6.53;3.15;;;27.10;99.90;;;;;;5024970;28;20230;-63
2023/10/08 10:30:08;;;;;;;6.10;3.72;;;27.00;99.90;;;;;;5029468;28;20268;-64
2023/10/08 10:32:35;;;;;;;12.00;3.10;;;26.30;99.90;;;;;;5023116;28;20709;-65
2023/10/08 10:35:03;;;;;;;8.73;3.70;;;26.00;99.90;;;;;;5032744;28;20202;-65
2023/10/08 10:37:41;;;;;;;9.38;4.18;;;25.70;99.90;;;;;;5022750;28;20610;-62
2023/10/08 10:40:12;;;;;;;8.43;2.90;;;25.60;99.90;;;;;;5029854;28;20205;-56
2023/10/08 10:42:42;;;;;;;11.00;3.50;;;25.10;99.90;;;;;;5024617;28;20305;-55
2023/10/08 10:45:34;;;;;;;9.15;3.67;;;25.00;99.90;;;;;;5029269;28;20202;-56
2023/10/08 10:48:11;;;;;;;7.50;3.30;;;24.70;99.90;;;;;;5029264;28;20222;-56
2023/10/08 10:50:47;;;;;;;7.57;2.60;;;24.60;99.90;;;;;;5023136;28;20194;-56
2023/10/08 10:53:18;;;;;;;5.47;2.67;;;24.40;99.90;;;;;;5021007;28;20202;-57
2023/10/08 10:55:58;;;;;;;16.50;3.90;;;24.50;99.90;;;;;;5026347;28;20679;-56
2023/10/08 10:58:26;;;;;;;7.70;3.57;;;24.30;99.90;;;;;;5028206;28;20194;-56
2023/10/08 11:00:59;;;;;;;8.47;2.93;;;24.00;99.90;;;;;;5026646;28;20199;-56
2023/10/08 11:03:28;;;;;;;7.80;2.87;;;23.90;99.90;;;;;;5029291;28;20198;-56
2023/10/08 11:06:05;;;;;;;7.63;2.90;;;23.80;99.90;;;;;;5025866;28;20202;-55
2023/10/08 11:08:35;;;;;;;10.43;4.37;;;23.90;99.90;;;;;;5030872;28;20224;-56
2023/10/08 11:11:05;;;;;;;8.27;3.33;;;23.60;99.90;;;;;;5029234;28;20222;-56
2023/10/08 11:13:38;;;;;;;16.13;4.60;;;23.50;99.90;;;;;;5027584;28;20266;-56
2023/10/08 11:16:07;;;;;;;12.87;4.53;;;23.30;99.90;;;;;;5020555;28;21793;-56
2023/10/08 11:18:34;;;;;;;10.47;3.23;;;23.20;99.90;;;;;;5025278;28;20199;-56
2023/10/08 11:21:15;;;;;;;12.70;3.30;;;23.30;99.90;;;;;;5021776;28;20843;-56
2023/10/08 11:23:52;;;;;;;7.30;3.77;;;23.30;99.90;;;;;;5029740;28;20441;-56
2023/10/08 11:26:21;;;;;;;9.17;3.53;;;23.30;99.90;;;;;;5029551;28;20218;-56
2023/10/08 11:28:48;;;;;;;13.97;4.37;;;23.30;99.90;;;;;;5022422;28;20314;-56
2023/10/08 11:31:19;;;;;;;6.67;3.20;;;23.40;99.90;;;;;;5022595;28;20288;-56
2023/10/08 11:33:53;;;;;;;7.07;2.90;;;23.40;99.90;;;;;;5026826;28;20198;-56
2023/10/08 11:36:27;;;;;;;10.73;3.00;;;23.50;99.90;;;;;;5027828;28;20236;-56
2023/10/08 11:39:00;;;;;;;9.50;3.60;;;23.40;99.90;;;;;;5028890;28;20381;-55
2023/10/08 11:41:30;;;;;;;8.37;3.37;;;23.40;99.90;;;;;;5020715;28;20219;-55
2023/10/08 11:43:58;;;;;;;13.47;4.50;;;23.40;99.90;;;;;;5022545;28;20207;-55
2023/10/08 11:46:27;;;;;;;12.20;2.77;;;23.30;99.90;;;;;;5025127;28;20623;-56
2023/10/08 11:48:58;;;;;;;9.43;3.27;;;23.30;99.90;;;;;;5022348;28;20219;-57
2023/10/08 11:51:25;;;;;;;12.70;3.80;;;23.20;99.90;;;;;;5030073;28;20313;-56
2023/10/08 11:53:53;;;;;;;10.77;3.73;;;23.10;99.90;;;;;;5024394;28;20206;-55
2023/10/08 11:56:23;;;;;;;10.73;3.30;;;23.20;99.90;;;;;;5021404;28;20210;-55
2023/10/08 11:58:51;;;;;;;8.47;3.40;;;23.30;99.90;;;;;;5026117;28;20210;-56
2023/10/08 12:01:18;;;;;;;10.03;3.40;;;23.30;99.90;;;;;;5015574;28;20225;-56
2023/10/08 12:03:45;;;;;;;10.50;3.93;;;23.30;99.90;;;;;;5020669;28;20198;-55
2023/10/08 12:06:15;;;;;;;11.13;2.97;;;23.20;99.90;;;;;;5029425;28;20199;-55
2023/10/08 12:08:45;;;;;;;5.70;3.83;;;23.20;99.90;;;;;;5023378;28;20242;-55
2023/10/08 12:11:14;;;;;;;13.03;3.73;;;23.20;99.90;;;;;;5025701;28;20231;-55
2023/10/08 12:13:47;;;;;;;7.93;4.53;;;23.30;99.90;;;;;;5028832;28;20686;-56
2023/10/08 12:16:18;;;;;;;7.43;5.00;;;23.40;99.90;;;;;;5029238;28;20252;-56
2023/10/08 12:18:48;;;;;;;8.20;5.07;;;23.60;99.90;;;;;;5028573;28;20205;-56
2023/10/08 12:21:17;;;;;;;13.57;4.30;;;23.50;99.90;;;;;;5025970;28;20777;-56
2023/10/08 12:23:46;;;;;;;7.50;4.53;;;23.70;99.90;;;;;;5029475;28;20202;-56
2023/10/08 12:26:15;;;;;;;11.97;5.43;;;23.70;99.90;;;;;;5031401;28;20326;-56
2023/10/08 12:28:45;;;;;;;9.17;4.57;;;23.70;99.90;;;;;;5028478;28;20222;-56
2023/10/08 12:31:15;;;;;;;11.30;5.00;;;23.70;99.90;;;;;;5027235;28;20710;-56
2023/10/08 12:33:44;;;;;;;8.97;4.93;;;23.30;99.90;;;;;;5030384;28;20244;-56
2023/10/08 12:36:12;;;;;;;12.17;5.60;;;23.00;99.90;;;;;;5030855;28;20256;-58
2023/10/08 12:38:41;;;;;;;9.47;5.13;;;22.90;99.90;;;;;;5030691;28;20198;-56
2023/10/08 12:41:14;;;;;;;22.20;5.83;;;22.90;99.90;;;;;;5024846;28;20633;-55
2023/10/08 12:43:44;;;;;;;7.00;5.23;;;22.80;99.90;;;;;;5028170;28;20248;-56
2023/10/08 12:46:18;;;;;;;5.60;5.10;;;22.90;99.90;;;;;;5030831;28;20194;-55
2023/10/08 12:48:47;;;;;;;6.70;5.37;;;22.80;99.90;;;;;;5031015;28;20601;-55
2023/10/08 12:51:15;;;;;;;10.73;6.53;;;22.60;99.90;;;;;;5030200;28;20299;-56
2023/10/08 12:53:50;;;;;;;11.93;6.10;;;22.60;99.90;;;;;;5029721;28;20210;-55
2023/10/08 12:56:21;;;;;;;8.83;5.80;;;22.40;99.90;;;;;;5026697;28;20232;-55
2023/10/08 12:58:49;;;;;;;9.00;6.27;;;22.30;99.90;;;;;;5028740;28;20264;-56
2023/10/08 13:01:18;;;;;;;9.40;6.37;;;22.10;99.90;;;;;;5022817;28;20227;-56
2023/10/08 13:03:48;;;;;;;6.90;5.20;;;22.20;99.90;;;;;;5023873;28;20523;-56
2023/10/08 13:06:21;;;;;;;10.53;5.30;;;22.10;99.90;;;;;;5023490;28;20198;-56
2023/10/08 13:08:50;;;;;;;11.50;5.00;;;22.20;99.90;;;;;;5026133;28;20223;-55
2023/10/08 13:11:22;;;;;;;10.20;5.00;;;22.30;99.90;;;;;;5029479;28;20226;-57
2023/10/08 13:13:50;;;;;;;7.40;5.57;;;22.40;99.90;;;;;;5029030;28;20297;-55
2023/10/08 13:16:18;;;;;;;7.00;4.83;;;22.60;99.90;;;;;;5030594;28;20248;-56
2023/10/08 13:18:45;;;;;;;9.67;4.63;;;22.60;99.90;;;;;;5025092;28;20202;-55
2023/10/08 13:21:12;;;;;;;6.10;5.50;;;22.70;99.90;;;;;;5028105;28;20732;-55
2023/10/08 13:23:41;;;;;;;6.13;4.60;;;22.80;99.90;;;;;;5023491;28;20199;-56
2023/10/08 13:26:08;;;;;;;6.63;4.17;;;22.80;99.90;;;;;;5023664;28;20662;-56